createdAt,value
2022-09-17T00:00:48.861Z,1015.81
2022-09-17T00:01:48.936Z,1015.79
2022-09-17T00:02:48.930Z,1015.78
2022-09-17T00:03:48.846Z,1015.82
2022-09-17T00:04:48.806Z,1015.81
2022-09-17T00:05:48.843Z,1015.80
2022-09-17T00:06:48.789Z,1015.77
2022-09-17T00:07:48.781Z,1015.79
2022-09-17T00:08:48.774Z,1015.72
2022-09-17T00:09:48.752Z,1015.74
2022-09-17T00:10:48.738Z,1015.76
2022-09-17T00:11:48.766Z,1015.78
2022-09-17T00:12:48.704Z,1015.74
2022-09-17T00:13:48.705Z,1015.79
2022-09-17T00:14:48.691Z,1015.80
2022-09-17T00:15:48.741Z,1015.81
2022-09-17T00:16:48.652Z,1015.75
2022-09-17T00:17:48.693Z,1015.78
2022-09-17T00:18:48.641Z,1015.78
2022-09-17T00:19:48.621Z,1015.73
2022-09-17T00:20:48.600Z,1015.78
2022-09-17T00:21:48.613Z,1015.72
2022-09-17T00:22:48.579Z,1015.72
2022-09-17T00:23:48.696Z,1015.78
2022-09-17T00:24:48.546Z,1015.72
2022-09-17T00:25:48.553Z,1015.74
2022-09-17T00:26:48.540Z,1015.78
2022-09-17T00:27:48.516Z,1015.78
2022-09-17T00:28:48.506Z,1015.81
2022-09-17T00:29:48.517Z,1015.78
2022-09-17T00:30:48.494Z,1015.77
2022-09-17T00:31:48.526Z,1015.81
2022-09-17T00:32:48.463Z,1015.78
2022-09-17T00:33:48.429Z,1015.79
2022-09-17T00:34:48.477Z,1015.87
2022-09-17T00:35:48.412Z,1015.85
2022-09-17T00:36:48.413Z,1015.89
2022-09-17T00:37:48.375Z,1015.86
2022-09-17T00:38:48.406Z,1015.86
2022-09-17T00:39:48.516Z,1015.80
2022-09-17T00:40:48.384Z,1015.76
2022-09-17T00:41:48.334Z,1015.78
2022-09-17T00:42:48.334Z,1015.72
2022-09-17T00:43:48.450Z,1015.77
2022-09-17T00:44:48.296Z,1015.76
2022-09-17T00:45:48.311Z,1015.79
2022-09-17T00:46:48.309Z,1015.73
2022-09-17T00:47:48.250Z,1015.76
2022-09-17T00:48:48.386Z,1015.79
2022-09-17T00:49:48.218Z,1015.74
2022-09-17T00:50:48.216Z,1015.68
2022-09-17T00:51:48.220Z,1015.74
2022-09-17T00:52:48.199Z,1015.71
2022-09-17T00:53:48.305Z,1015.70
2022-09-17T00:54:48.171Z,1015.74
2022-09-17T00:55:48.147Z,1015.70
2022-09-17T00:56:48.175Z,1015.71
2022-09-17T00:57:48.123Z,1015.74
2022-09-17T00:58:48.120Z,1015.74
2022-09-17T00:59:48.094Z,1015.79
2022-09-17T01:00:48.172Z,1015.76
2022-09-17T01:01:48.129Z,1015.80
2022-09-17T01:02:48.104Z,1015.75
2022-09-17T01:03:48.040Z,1015.76
2022-09-17T01:04:48.065Z,1015.76
2022-09-17T01:05:48.022Z,1015.82
2022-09-17T01:06:48.011Z,1015.80
2022-09-17T01:07:48.046Z,1015.78
2022-09-17T01:08:47.988Z,1015.80
2022-09-17T01:09:47.970Z,1015.81
2022-09-17T01:10:47.962Z,1015.85
2022-09-17T01:11:47.940Z,1015.81
2022-09-17T01:12:47.943Z,1015.85
2022-09-17T01:13:47.943Z,1015.84
2022-09-17T01:14:47.903Z,1015.84
2022-09-17T01:15:47.935Z,1015.83
2022-09-17T01:16:47.904Z,1015.83
2022-09-17T01:17:47.848Z,1015.85
2022-09-17T01:18:47.901Z,1015.88
2022-09-17T01:19:47.824Z,1015.87
2022-09-17T01:20:47.820Z,1015.88
2022-09-17T01:21:47.800Z,1015.97
2022-09-17T01:22:47.807Z,1015.93
2022-09-17T01:23:47.872Z,1015.93
2022-09-17T01:24:47.805Z,1015.95
2022-09-17T01:25:47.744Z,1015.97
2022-09-17T01:26:47.769Z,1015.97
2022-09-17T01:27:47.737Z,1016.04
2022-09-17T01:28:47.719Z,1016.04
2022-09-17T01:29:47.738Z,1016.05
2022-09-17T01:30:47.697Z,1016.09
2022-09-17T01:31:47.747Z,1016.11
2022-09-17T01:32:47.678Z,1016.14
2022-09-17T01:33:47.640Z,1016.16
2022-09-17T01:34:47.647Z,1016.14
2022-09-17T01:35:47.643Z,1016.06
2022-09-17T01:36:47.624Z,1016.05
2022-09-17T01:37:47.597Z,1016.09
2022-09-17T01:38:47.593Z,1016.04
2022-09-17T01:39:47.563Z,1016.06
2022-09-17T01:40:47.599Z,1016.08
2022-09-17T01:41:47.543Z,1016.04
2022-09-17T01:42:47.556Z,1016.06
2022-09-17T01:43:47.535Z,1016.06
2022-09-17T01:44:47.528Z,1016.03
2022-09-17T01:45:47.485Z,1016.08
2022-09-17T01:46:47.569Z,1016.00
2022-09-17T01:47:47.482Z,1016.05
2022-09-17T01:48:47.462Z,1016.02
2022-09-17T01:49:47.432Z,1016.01
2022-09-17T01:50:47.439Z,1016.05
2022-09-17T01:51:47.467Z,1016.07
2022-09-17T01:52:47.403Z,1016.06
2022-09-17T01:53:47.385Z,1016.07
2022-09-17T01:54:47.389Z,1016.06
2022-09-17T01:55:47.356Z,1016.06
2022-09-17T01:56:47.352Z,1016.07
2022-09-17T01:57:47.361Z,1016.07
2022-09-17T01:58:47.331Z,1016.04
2022-09-17T01:59:47.323Z,1016.03
2022-09-17T02:00:47.348Z,1015.98
2022-09-17T02:01:47.353Z,1015.93
2022-09-17T02:02:47.309Z,1015.91
2022-09-17T02:03:47.256Z,1015.90
2022-09-17T02:04:53.760Z,1015.86
2022-09-17T02:05:47.223Z,1015.84
2022-09-17T02:06:47.224Z,1015.84
2022-09-17T02:07:47.195Z,1015.86
2022-09-17T02:08:47.228Z,1015.82
2022-09-17T02:09:47.177Z,1015.84
2022-09-17T02:10:47.176Z,1015.84
2022-09-17T02:11:47.151Z,1015.86
2022-09-17T02:12:47.155Z,1015.88
2022-09-17T02:13:47.161Z,1015.92
2022-09-17T02:14:47.128Z,1015.89
2022-09-17T02:15:47.117Z,1015.89
2022-09-17T02:16:47.093Z,1015.93
2022-09-17T02:17:47.077Z,1016.03
2022-09-17T02:18:47.072Z,1015.92
2022-09-17T02:19:47.112Z,1016.01
2022-09-17T02:20:47.046Z,1016.03
2022-09-17T02:21:47.032Z,1016.01
2022-09-17T02:22:47.019Z,1016.05
2022-09-17T02:23:46.989Z,1016.01
2022-09-17T02:24:47.043Z,1016.03
2022-09-17T02:25:46.963Z,1016.01
2022-09-17T02:26:46.963Z,1016.01
2022-09-17T02:27:46.945Z,1016.03
2022-09-17T02:28:46.934Z,1016.03
2022-09-17T02:29:46.907Z,1016.04
2022-09-17T02:30:46.958Z,1015.98
2022-09-17T02:31:46.908Z,1015.99
2022-09-17T02:32:46.888Z,1015.93
2022-09-17T02:33:46.865Z,1015.96
2022-09-17T02:34:46.855Z,1015.95
2022-09-17T02:35:46.870Z,1015.93
2022-09-17T02:36:46.841Z,1015.98
2022-09-17T02:37:46.819Z,1015.94
2022-09-17T02:38:46.812Z,1015.97
2022-09-17T02:39:46.806Z,1015.97
2022-09-17T02:40:46.794Z,1016.00
2022-09-17T02:41:46.788Z,1016.02
2022-09-17T02:42:46.767Z,1016.03
2022-09-17T02:43:46.733Z,1016.05
2022-09-17T02:44:46.728Z,1016.05
2022-09-17T02:45:46.698Z,1016.06
2022-09-17T02:46:46.798Z,1016.00
2022-09-17T02:47:46.688Z,1016.04
2022-09-17T02:48:46.679Z,1016.04
2022-09-17T02:49:46.659Z,1016.05
2022-09-17T02:50:46.651Z,1016.07
2022-09-17T02:51:46.626Z,1016.09
2022-09-17T02:52:46.664Z,1016.13
2022-09-17T02:53:46.716Z,1016.13
2022-09-17T02:54:46.593Z,1016.14
2022-09-17T02:55:46.571Z,1016.20
2022-09-17T02:56:46.581Z,1016.20
2022-09-17T02:57:46.591Z,1016.14
2022-09-17T02:58:46.559Z,1016.23
2022-09-17T02:59:46.552Z,1016.17
2022-09-17T03:00:46.576Z,1016.20
2022-09-17T03:01:46.538Z,1016.16
2022-09-17T03:02:46.495Z,1016.20
2022-09-17T03:03:46.492Z,1016.17
2022-09-17T03:04:46.485Z,1016.19
2022-09-17T03:05:46.447Z,1016.13
2022-09-17T03:06:46.453Z,1016.14
2022-09-17T03:07:46.411Z,1016.14
2022-09-17T03:08:46.499Z,1016.15
2022-09-17T03:09:46.406Z,1016.16
2022-09-17T03:10:46.401Z,1016.11
2022-09-17T03:11:46.364Z,1016.09
2022-09-17T03:12:46.363Z,1016.09
2022-09-17T03:13:46.341Z,1016.08
2022-09-17T03:14:46.372Z,1016.10
2022-09-17T03:15:46.373Z,1016.13
2022-09-17T03:16:46.310Z,1016.12
2022-09-17T03:17:49.024Z,1016.13
2022-09-17T03:18:46.316Z,1016.17
2022-09-17T03:19:46.292Z,1016.18
2022-09-17T03:20:46.260Z,1016.19
2022-09-17T03:21:46.246Z,1016.17
2022-09-17T03:22:46.239Z,1016.17
2022-09-17T03:23:46.284Z,1016.22
2022-09-17T03:24:46.215Z,1016.23
2022-09-17T03:25:46.202Z,1016.17
2022-09-17T03:26:46.178Z,1016.18
2022-09-17T03:27:46.154Z,1016.20
2022-09-17T03:28:46.149Z,1016.15
2022-09-17T03:29:46.133Z,1016.10
2022-09-17T03:30:46.185Z,1016.14
2022-09-17T03:31:46.131Z,1016.15
2022-09-17T03:32:46.097Z,1016.10
2022-09-17T03:33:46.078Z,1016.08
2022-09-17T03:34:46.073Z,1016.08
2022-09-17T03:35:46.046Z,1016.06
2022-09-17T03:36:46.081Z,1016.08
2022-09-17T03:37:46.052Z,1016.12
2022-09-17T03:38:46.111Z,1016.06
2022-09-17T03:39:46.036Z,1016.03
2022-09-17T03:40:46.000Z,1016.09
2022-09-17T03:41:46.014Z,1016.08
2022-09-17T03:42:45.967Z,1016.10
2022-09-17T03:43:45.942Z,1016.10
2022-09-17T03:44:45.945Z,1016.11
2022-09-17T03:45:45.931Z,1016.14
2022-09-17T03:46:46.002Z,1016.18
2022-09-17T03:47:45.918Z,1016.17
2022-09-17T03:48:45.896Z,1016.15
2022-09-17T03:49:45.870Z,1016.15
2022-09-17T03:50:45.877Z,1016.05
2022-09-17T03:51:45.837Z,1016.06
2022-09-17T03:52:45.866Z,1016.10
2022-09-17T03:53:45.823Z,1016.13
2022-09-17T03:54:45.816Z,1016.18
2022-09-17T03:55:45.791Z,1016.18
2022-09-17T03:56:45.792Z,1016.18
2022-09-17T03:57:45.783Z,1016.22
2022-09-17T03:58:45.788Z,1016.15
2022-09-17T03:59:45.731Z,1016.11
2022-09-17T04:00:45.743Z,1016.09
2022-09-17T04:01:45.821Z,1016.11
2022-09-17T04:02:45.805Z,1016.11
2022-09-17T04:03:45.717Z,1016.15
2022-09-17T04:04:45.676Z,1016.16
2022-09-17T04:05:45.687Z,1016.19
2022-09-17T04:06:45.758Z,1016.20
2022-09-17T04:07:45.643Z,1016.25
2022-09-17T04:08:45.629Z,1016.23
2022-09-17T04:09:45.680Z,1016.28
2022-09-17T04:10:45.614Z,1016.26
2022-09-17T04:11:45.576Z,1016.30
2022-09-17T04:12:45.600Z,1016.35
2022-09-17T04:13:45.560Z,1016.34
2022-09-17T04:14:45.581Z,1016.35
2022-09-17T04:15:45.602Z,1016.36
2022-09-17T04:16:45.561Z,1016.34
2022-09-17T04:17:45.506Z,1016.38
2022-09-17T04:18:45.501Z,1016.39
2022-09-17T04:19:45.470Z,1016.40
2022-09-17T04:20:45.507Z,1016.49
2022-09-17T04:21:45.475Z,1016.44
2022-09-17T04:22:45.469Z,1016.48
2022-09-17T04:23:45.476Z,1016.49
2022-09-17T04:24:45.421Z,1016.49
2022-09-17T04:25:45.462Z,1016.45
2022-09-17T04:26:45.429Z,1016.51
2022-09-17T04:27:45.380Z,1016.52
2022-09-17T04:28:45.377Z,1016.48
2022-09-17T04:29:45.346Z,1016.48
2022-09-17T04:30:45.337Z,1016.46
2022-09-17T04:31:45.622Z,1016.43
2022-09-17T04:32:45.360Z,1016.40
2022-09-17T04:33:45.297Z,1016.41
2022-09-17T04:34:45.293Z,1016.43
2022-09-17T04:35:45.280Z,1016.40
2022-09-17T04:36:45.302Z,1016.44
2022-09-17T04:37:45.247Z,1016.42
2022-09-17T04:38:45.297Z,1016.39
2022-09-17T04:39:45.236Z,1016.43
2022-09-17T04:40:45.262Z,1016.40
2022-09-17T04:41:45.171Z,1016.38
2022-09-17T04:42:45.197Z,1016.44
2022-09-17T04:43:45.122Z,1016.43
2022-09-17T04:44:45.112Z,1016.45
2022-09-17T04:45:45.163Z,1016.43
2022-09-17T04:46:45.153Z,1016.42
2022-09-17T04:47:45.146Z,1016.47
2022-09-17T04:48:45.043Z,1016.44
2022-09-17T04:49:45.122Z,1016.52
2022-09-17T04:50:45.017Z,1016.49
2022-09-17T04:51:45.053Z,1016.52
2022-09-17T04:52:44.985Z,1016.55
2022-09-17T04:53:45.023Z,1016.66
2022-09-17T04:54:44.957Z,1016.67
2022-09-17T04:55:45.015Z,1016.71
2022-09-17T04:56:44.997Z,1016.71
2022-09-17T04:57:44.987Z,1016.70
2022-09-17T04:58:44.965Z,1016.72
2022-09-17T04:59:44.959Z,1016.73
2022-09-17T05:00:44.950Z,1016.73
2022-09-17T05:01:44.948Z,1016.68
2022-09-17T05:02:44.862Z,1016.77
2022-09-17T05:03:44.864Z,1016.72
2022-09-17T05:04:44.892Z,1016.76
2022-09-17T05:05:44.854Z,1016.76
2022-09-17T05:06:44.807Z,1016.76
2022-09-17T05:07:44.836Z,1016.79
2022-09-17T05:08:44.779Z,1016.79
2022-09-17T05:09:44.827Z,1016.71
2022-09-17T05:10:44.783Z,1016.78
2022-09-17T05:11:44.837Z,1016.69
2022-09-17T05:12:44.749Z,1016.75
2022-09-17T05:13:44.735Z,1016.72
2022-09-17T05:14:44.694Z,1016.76
2022-09-17T05:15:44.787Z,1016.76
2022-09-17T05:16:44.683Z,1016.75
2022-09-17T05:17:44.715Z,1016.67
2022-09-17T05:18:44.685Z,1016.71
2022-09-17T05:19:44.662Z,1016.70
2022-09-17T05:20:44.615Z,1016.72
2022-09-17T05:21:44.663Z,1016.78
2022-09-17T05:22:44.595Z,1016.71
2022-09-17T05:23:44.631Z,1016.71
2022-09-17T05:24:44.572Z,1016.77
2022-09-17T05:25:44.564Z,1016.70
2022-09-17T05:26:44.595Z,1016.70
2022-09-17T05:27:44.587Z,1016.71
2022-09-17T05:28:44.514Z,1016.72
2022-09-17T05:29:44.533Z,1016.74
2022-09-17T05:30:44.531Z,1016.77
2022-09-17T05:31:44.560Z,1016.73
2022-09-17T05:32:44.466Z,1016.74
2022-09-17T05:33:44.520Z,1016.77
2022-09-17T05:34:44.464Z,1016.80
2022-09-17T05:35:44.436Z,1016.80
2022-09-17T05:36:44.412Z,1016.79
2022-09-17T05:37:44.470Z,1016.83
2022-09-17T05:38:44.404Z,1016.87
2022-09-17T05:39:44.436Z,1016.87
2022-09-17T05:40:44.362Z,1016.86
2022-09-17T05:41:44.361Z,1016.86
2022-09-17T05:42:44.349Z,1016.90
2022-09-17T05:43:44.335Z,1016.91
2022-09-17T05:44:44.324Z,1016.88
2022-09-17T05:45:44.348Z,1016.96
2022-09-17T05:46:44.311Z,1016.94
2022-09-17T05:47:44.287Z,1017.00
2022-09-17T05:48:44.263Z,1017.01
2022-09-17T05:49:44.257Z,1017.06
2022-09-17T05:50:44.277Z,1017.03
2022-09-17T05:51:44.280Z,1017.03
2022-09-17T05:52:44.221Z,1017.04
2022-09-17T05:53:44.203Z,1017.09
2022-09-17T05:54:44.192Z,1017.05
2022-09-17T05:55:44.184Z,1017.07
2022-09-17T05:56:44.163Z,1017.09
2022-09-17T05:57:44.203Z,1017.08
2022-09-17T05:58:44.155Z,1017.05
2022-09-17T05:59:44.138Z,1017.07
2022-09-17T06:00:44.107Z,1017.12
2022-09-17T06:01:44.194Z,1017.14
2022-09-17T06:02:44.177Z,1017.11
2022-09-17T06:03:44.092Z,1017.14
2022-09-17T06:04:44.068Z,1017.17
2022-09-17T06:05:44.055Z,1017.16
2022-09-17T06:06:44.029Z,1017.16
2022-09-17T06:07:44.024Z,1017.14
2022-09-17T06:08:44.023Z,1017.15
2022-09-17T06:09:44.044Z,1017.07
2022-09-17T06:10:43.985Z,1017.12
2022-09-17T06:11:44.010Z,1017.12
2022-09-17T06:12:43.945Z,1017.13
2022-09-17T06:13:44.001Z,1017.11
2022-09-17T06:14:43.905Z,1017.14
2022-09-17T06:15:43.919Z,1017.17
2022-09-17T06:16:43.920Z,1017.15
2022-09-17T06:17:43.907Z,1017.10
2022-09-17T06:18:43.864Z,1017.17
2022-09-17T06:19:43.907Z,1017.17
2022-09-17T06:20:43.890Z,1017.18
2022-09-17T06:21:43.889Z,1017.26
2022-09-17T06:22:43.809Z,1017.27
2022-09-17T06:23:43.818Z,1017.24
2022-09-17T06:24:43.814Z,1017.26
2022-09-17T06:25:43.787Z,1017.23
2022-09-17T06:26:43.777Z,1017.24
2022-09-17T06:27:43.750Z,1017.26
2022-09-17T06:28:43.741Z,1017.28
2022-09-17T06:29:43.742Z,1017.26
2022-09-17T06:30:43.734Z,1017.33
2022-09-17T06:31:43.780Z,1017.35
2022-09-17T06:32:43.692Z,1017.34
2022-09-17T06:33:43.675Z,1017.28
2022-09-17T06:34:43.644Z,1017.30
2022-09-17T06:35:43.867Z,1017.25
2022-09-17T06:36:43.620Z,1017.25
2022-09-17T06:37:43.621Z,1017.21
2022-09-17T06:38:43.644Z,1017.28
2022-09-17T06:39:43.604Z,1017.29
2022-09-17T06:40:43.681Z,1017.26
2022-09-17T06:41:43.610Z,1017.30
2022-09-17T06:42:43.535Z,1017.28
2022-09-17T06:43:43.637Z,1017.22
2022-09-17T06:44:43.535Z,1017.25
2022-09-17T06:45:43.525Z,1017.28
2022-09-17T06:46:43.578Z,1017.25
2022-09-17T06:47:43.541Z,1017.26
2022-09-17T06:48:43.492Z,1017.27
2022-09-17T06:49:43.523Z,1017.24
2022-09-17T06:50:43.470Z,1017.28
2022-09-17T06:51:43.441Z,1017.26
2022-09-17T06:52:43.453Z,1017.28
2022-09-17T06:53:43.456Z,1017.25
2022-09-17T06:54:43.383Z,1017.26
2022-09-17T06:55:43.392Z,1017.26
2022-09-17T06:56:43.406Z,1017.24
2022-09-17T06:57:43.357Z,1017.22
2022-09-17T06:58:43.370Z,1017.23
2022-09-17T06:59:43.343Z,1017.22
2022-09-17T07:00:43.379Z,1017.23
2022-09-17T07:01:43.329Z,1017.23
2022-09-17T07:02:43.281Z,1017.20
2022-09-17T07:03:43.296Z,1017.22
2022-09-17T07:04:43.323Z,1017.25
2022-09-17T07:05:43.272Z,1017.28
2022-09-17T07:06:43.252Z,1017.29
2022-09-17T07:07:43.296Z,1017.35
2022-09-17T07:08:43.202Z,1017.32
2022-09-17T07:09:43.227Z,1017.32
2022-09-17T07:10:43.233Z,1017.29
2022-09-17T07:11:43.187Z,1017.35
2022-09-17T07:12:47.830Z,1017.28
2022-09-17T07:13:43.157Z,1017.29
2022-09-17T07:14:43.128Z,1017.31
2022-09-17T07:15:43.187Z,1017.28
2022-09-17T07:16:43.135Z,1017.34
2022-09-17T07:17:43.101Z,1017.34
2022-09-17T07:18:43.080Z,1017.48
2022-09-17T07:19:43.065Z,1017.36
2022-09-17T07:20:43.040Z,1017.38
2022-09-17T07:21:43.081Z,1017.36
2022-09-17T07:22:43.042Z,1017.35
2022-09-17T07:23:43.013Z,1017.29
2022-09-17T07:24:42.995Z,1017.27
2022-09-17T07:25:43.018Z,1017.29
2022-09-17T07:26:42.958Z,1017.30
2022-09-17T07:27:43.003Z,1017.32
2022-09-17T07:28:43.072Z,1017.32
2022-09-17T07:29:43.069Z,1017.30
2022-09-17T07:30:42.913Z,1017.28
2022-09-17T07:31:43.005Z,1017.25
2022-09-17T07:32:42.876Z,1017.31
2022-09-17T07:33:42.877Z,1017.32
2022-09-17T07:34:42.885Z,1017.29
2022-09-17T07:35:42.855Z,1017.36
2022-09-17T07:36:42.825Z,1017.38
2022-09-17T07:37:42.834Z,1017.37
2022-09-17T07:38:42.804Z,1017.36
2022-09-17T07:39:42.819Z,1017.39
2022-09-17T07:40:42.863Z,1017.40
2022-09-17T07:41:42.843Z,1017.37
2022-09-17T07:42:42.780Z,1017.40
2022-09-17T07:43:42.758Z,1017.35
2022-09-17T07:44:42.720Z,1017.32
2022-09-17T07:45:42.775Z,1017.44
2022-09-17T07:46:42.822Z,1017.35
2022-09-17T07:47:42.695Z,1017.38
2022-09-17T07:48:42.707Z,1017.39
2022-09-17T07:49:42.666Z,1017.39
2022-09-17T07:50:42.649Z,1017.37
2022-09-17T07:51:42.705Z,1017.33
2022-09-17T07:52:42.684Z,1017.31
2022-09-17T07:53:42.650Z,1017.33
2022-09-17T07:54:42.634Z,1017.37
2022-09-17T07:55:42.594Z,1017.34
2022-09-17T07:56:42.647Z,1017.33
2022-09-17T07:57:42.560Z,1017.28
2022-09-17T07:58:42.573Z,1017.32
2022-09-17T07:59:42.552Z,1017.31
2022-09-17T08:00:42.526Z,1017.34
2022-09-17T08:01:42.673Z,1017.37
2022-09-17T08:02:42.586Z,1017.39
2022-09-17T08:03:42.506Z,1017.36
2022-09-17T08:04:42.496Z,1017.44
2022-09-17T08:05:42.488Z,1017.40
2022-09-17T08:06:42.444Z,1017.38
2022-09-17T08:07:42.449Z,1017.34
2022-09-17T08:08:42.513Z,1017.37
2022-09-17T08:09:42.409Z,1017.29
2022-09-17T08:10:42.410Z,1017.30
2022-09-17T08:11:55.626Z,1017.30
2022-09-17T08:12:42.376Z,1017.32
2022-09-17T08:13:42.361Z,1017.35
2022-09-17T08:14:42.322Z,1017.34
2022-09-17T08:15:42.387Z,1017.41
2022-09-17T08:16:42.345Z,1017.40
2022-09-17T08:17:42.305Z,1017.40
2022-09-17T08:18:42.290Z,1017.42
2022-09-17T08:19:42.359Z,1017.41
2022-09-17T08:20:42.276Z,1017.42
2022-09-17T08:21:42.246Z,1017.41
2022-09-17T08:22:44.761Z,1017.46
2022-09-17T08:23:42.278Z,1017.40
2022-09-17T08:24:42.194Z,1017.39
2022-09-17T08:25:42.191Z,1017.40
2022-09-17T08:26:42.167Z,1017.42
2022-09-17T08:27:42.229Z,1017.44
2022-09-17T08:28:42.201Z,1017.40
2022-09-17T08:29:42.139Z,1017.40
2022-09-17T08:30:42.119Z,1017.40
2022-09-17T08:31:42.208Z,1017.41
2022-09-17T08:32:42.123Z,1017.42
2022-09-17T08:33:42.097Z,1017.45
2022-09-17T08:34:42.128Z,1017.43
2022-09-17T08:35:42.071Z,1017.46
2022-09-17T08:36:42.033Z,1017.46
2022-09-17T08:37:42.081Z,1017.52
2022-09-17T08:38:42.047Z,1017.52
2022-09-17T08:39:42.051Z,1017.55
2022-09-17T08:40:42.020Z,1017.57
2022-09-17T08:41:41.985Z,1017.57
2022-09-17T08:42:41.972Z,1017.56
2022-09-17T08:43:41.954Z,1017.56
2022-09-17T08:44:41.936Z,1017.50
2022-09-17T08:45:41.990Z,1017.53
2022-09-17T08:46:42.002Z,1017.60
2022-09-17T08:47:41.921Z,1017.55
2022-09-17T08:48:41.875Z,1017.53
2022-09-17T08:49:41.925Z,1017.57
2022-09-17T08:50:41.837Z,1017.51
2022-09-17T08:51:41.841Z,1017.61
2022-09-17T08:52:41.895Z,1017.62
2022-09-17T08:53:41.816Z,1017.64
2022-09-17T08:54:41.779Z,1017.66
2022-09-17T08:55:41.797Z,1017.63
2022-09-17T08:56:41.816Z,1017.57
2022-09-17T08:57:41.761Z,1017.64
2022-09-17T08:58:41.829Z,1017.58
2022-09-17T08:59:41.716Z,1017.53
2022-09-17T09:00:41.741Z,1017.52
2022-09-17T09:01:41.955Z,1017.50
2022-09-17T09:02:41.815Z,1017.55
2022-09-17T09:03:41.709Z,1017.58
2022-09-17T09:04:41.735Z,1017.55
2022-09-17T09:05:41.765Z,1017.56
2022-09-17T09:06:41.636Z,1017.55
2022-09-17T09:07:41.617Z,1017.49
2022-09-17T09:08:41.810Z,1017.51
2022-09-17T09:09:41.591Z,1017.46
2022-09-17T09:10:41.665Z,1017.45
2022-09-17T09:11:41.558Z,1017.47
2022-09-17T09:12:41.590Z,1017.46
2022-09-17T09:13:41.586Z,1017.46
2022-09-17T09:14:41.526Z,1017.55
2022-09-17T09:15:41.521Z,1017.51
2022-09-17T09:16:41.541Z,1017.49
2022-09-17T09:17:41.501Z,1017.53
2022-09-17T09:18:41.489Z,1017.51
2022-09-17T09:19:41.510Z,1017.51
2022-09-17T09:20:41.459Z,1017.54
2022-09-17T09:21:41.441Z,1017.65
2022-09-17T09:22:41.458Z,1017.64
2022-09-17T09:23:41.398Z,1017.61
2022-09-17T09:24:41.432Z,1017.61
2022-09-17T09:25:41.385Z,1017.65
2022-09-17T09:26:41.410Z,1017.70
2022-09-17T09:27:41.379Z,1017.72
2022-09-17T09:28:41.378Z,1017.71
2022-09-17T09:29:41.324Z,1017.71
2022-09-17T09:30:41.324Z,1017.73
2022-09-17T09:31:41.405Z,1017.75
2022-09-17T09:32:41.292Z,1017.75
2022-09-17T09:33:45.630Z,1017.70
2022-09-17T09:34:41.359Z,1017.66
2022-09-17T09:35:41.247Z,1017.66
2022-09-17T09:36:41.279Z,1017.61
2022-09-17T09:37:41.285Z,1017.64
2022-09-17T09:38:41.258Z,1017.68
2022-09-17T09:39:45.719Z,1017.65
2022-09-17T09:40:41.280Z,1017.65
2022-09-17T09:41:41.193Z,1017.65
2022-09-17T09:42:41.167Z,1017.61
2022-09-17T09:44:02.776Z,1017.57
2022-09-17T09:44:41.271Z,1017.54
2022-09-17T09:45:41.116Z,1017.57
2022-09-17T09:46:41.215Z,1017.60
2022-09-17T09:47:41.113Z,1017.63
2022-09-17T09:48:41.109Z,1017.68
2022-09-17T09:49:41.055Z,1017.71
2022-09-17T09:51:02.229Z,1017.76
2022-09-17T09:51:41.104Z,1017.74
2022-09-17T09:52:41.126Z,1017.81
2022-09-17T09:53:41.031Z,1017.74
2022-09-17T09:54:41.027Z,1017.78
2022-09-17T09:55:41.016Z,1017.81
2022-09-17T09:56:41.036Z,1017.81
2022-09-17T09:57:40.984Z,1017.82
2022-09-17T09:58:41.088Z,1017.76
2022-09-17T09:59:40.937Z,1017.81
2022-09-17T10:00:40.940Z,1017.81
2022-09-17T10:01:41.041Z,1017.82
2022-09-17T10:02:40.971Z,1017.80
2022-09-17T10:03:40.886Z,1017.77
2022-09-17T10:04:40.913Z,1017.76
2022-09-17T10:05:40.929Z,1017.79
2022-09-17T10:06:40.855Z,1017.77
2022-09-17T10:07:40.951Z,1017.82
2022-09-17T10:08:40.840Z,1017.76
2022-09-17T10:09:40.849Z,1017.84
2022-09-17T10:10:40.839Z,1017.78
2022-09-17T10:11:40.800Z,1017.80
2022-09-17T10:12:40.784Z,1017.78
2022-09-17T10:13:40.764Z,1017.75
2022-09-17T10:14:40.814Z,1017.77
2022-09-17T10:15:40.710Z,1017.82
2022-09-17T10:16:40.769Z,1017.80
2022-09-17T10:17:40.684Z,1017.84
2022-09-17T10:18:40.696Z,1017.92
2022-09-17T10:19:40.660Z,1017.84
2022-09-17T10:20:40.663Z,1017.86
2022-09-17T10:21:40.656Z,1017.81
2022-09-17T10:22:40.662Z,1017.79
2022-09-17T10:23:40.655Z,1017.83
2022-09-17T10:24:40.615Z,1017.85
2022-09-17T10:25:40.617Z,1017.79
2022-09-17T10:26:40.575Z,1017.80
2022-09-17T10:27:40.605Z,1017.84
2022-09-17T10:28:40.617Z,1017.91
2022-09-17T10:29:40.520Z,1017.86
2022-09-17T10:30:40.520Z,1017.89
2022-09-17T10:31:40.738Z,1017.88
2022-09-17T10:32:40.514Z,1017.89
2022-09-17T10:33:40.470Z,1017.80
2022-09-17T10:34:40.561Z,1017.84
2022-09-17T10:35:40.439Z,1017.81
2022-09-17T10:36:40.468Z,1017.85
2022-09-17T10:37:40.420Z,1017.86
2022-09-17T10:38:40.430Z,1017.88
2022-09-17T10:39:40.428Z,1017.86
2022-09-17T10:40:40.452Z,1017.87
2022-09-17T10:41:40.377Z,1017.89
2022-09-17T10:42:40.368Z,1017.92
2022-09-17T10:43:40.428Z,1017.92
2022-09-17T10:44:40.335Z,1017.91
2022-09-17T10:45:40.383Z,1017.98
2022-09-17T10:46:40.392Z,1017.95
2022-09-17T10:47:40.295Z,1017.86
2022-09-17T10:48:40.273Z,1017.89
2022-09-17T10:49:40.267Z,1017.87
2022-09-17T10:50:40.307Z,1017.83
2022-09-17T10:51:40.244Z,1017.84
2022-09-17T10:52:40.266Z,1017.76
2022-09-17T10:53:40.338Z,1017.81
2022-09-17T10:54:40.219Z,1017.76
2022-09-17T10:55:40.170Z,1017.78
2022-09-17T10:56:40.345Z,1017.78
2022-09-17T10:57:40.141Z,1017.81
2022-09-17T10:58:42.357Z,1017.79
2022-09-17T10:59:40.120Z,1017.79
2022-09-17T11:00:40.213Z,1017.79
2022-09-17T11:01:40.207Z,1017.76
2022-09-17T11:02:40.260Z,1017.78
2022-09-17T11:03:40.089Z,1017.70
2022-09-17T11:04:40.126Z,1017.64
2022-09-17T11:05:40.032Z,1017.72
2022-09-17T11:06:40.042Z,1017.66
2022-09-17T11:07:40.041Z,1017.60
2022-09-17T11:08:40.018Z,1017.59
2022-09-17T11:09:39.981Z,1017.60
2022-09-17T11:10:40.050Z,1017.53
2022-09-17T11:11:39.956Z,1017.56
2022-09-17T11:12:39.994Z,1017.50
2022-09-17T11:13:39.934Z,1017.53
2022-09-17T11:14:40.006Z,1017.51
2022-09-17T11:15:39.919Z,1017.41
2022-09-17T11:16:40.054Z,1017.34
2022-09-17T11:17:39.882Z,1017.34
2022-09-17T11:18:39.878Z,1017.35
2022-09-17T11:19:39.913Z,1017.36
2022-09-17T11:20:39.856Z,1017.40
2022-09-17T11:21:39.831Z,1017.41
2022-09-17T11:22:39.936Z,1017.44
2022-09-17T11:23:39.815Z,1017.45
2022-09-17T11:24:39.818Z,1017.43
2022-09-17T11:25:39.775Z,1017.46
2022-09-17T11:26:39.768Z,1017.41
2022-09-17T11:27:39.765Z,1017.41
2022-09-17T11:28:39.777Z,1017.41
2022-09-17T11:29:39.729Z,1017.38
2022-09-17T11:30:39.722Z,1017.40
2022-09-17T11:31:39.788Z,1017.38
2022-09-17T11:32:39.699Z,1017.36
2022-09-17T11:33:39.666Z,1017.34
2022-09-17T11:34:39.714Z,1017.35
2022-09-17T11:35:39.650Z,1017.34
2022-09-17T11:36:39.640Z,1017.40
2022-09-17T11:37:39.654Z,1017.36
2022-09-17T11:38:39.605Z,1017.33
2022-09-17T11:39:39.675Z,1017.36
2022-09-17T11:40:39.656Z,1017.30
2022-09-17T11:41:39.590Z,1017.34
2022-09-17T11:42:39.610Z,1017.27
2022-09-17T11:43:39.537Z,1017.31
2022-09-17T11:44:39.552Z,1017.37
2022-09-17T11:45:39.635Z,1017.32
2022-09-17T11:46:39.652Z,1017.25
2022-09-17T11:47:39.557Z,1017.22
2022-09-17T11:48:39.501Z,1017.23
2022-09-17T11:49:39.467Z,1017.17
2022-09-17T11:50:39.456Z,1017.15
2022-09-17T11:51:39.472Z,1017.22
2022-09-17T11:52:39.479Z,1017.13
2022-09-17T11:53:39.419Z,1017.19
2022-09-17T11:54:39.419Z,1017.13
2022-09-17T11:55:39.391Z,1017.16
2022-09-17T11:56:39.423Z,1017.10
2022-09-17T11:57:39.345Z,1017.08
2022-09-17T11:58:39.425Z,1017.04
2022-09-17T11:59:39.338Z,1017.03
2022-09-17T12:00:39.357Z,1017.02
2022-09-17T12:01:39.341Z,1017.04
2022-09-17T12:02:39.360Z,1017.05
2022-09-17T12:03:39.279Z,1016.94
2022-09-17T12:04:39.314Z,1017.01
2022-09-17T12:05:39.244Z,1016.96